sensor_id;sensor_type;location;lat;lon;timestamp;P1;durP1;ratioP1;P2;durP2;ratioP2
5507;SDS011;2776;51.046;6.772;2023-09-07T00:00:25;9.97;;;6.47;;
5507;SDS011;2776;51.046;6.772;2023-09-07T00:02:52;6.93;;;5.90;;
5507;SDS011;2776;51.046;6.772;2023-09-07T00:05:19;6.30;;;5.23;;
5507;SDS011;2776;51.046;6.772;2023-09-07T00:07:46;5.93;;;5.33;;
5507;SDS011;2776;51.046;6.772;2023-09-07T00:10:13;6.17;;;5.57;;
5507;SDS011;2776;51.046;6.772;2023-09-07T00:12:41;6.00;;;5.40;;
5507;SDS011;2776;51.046;6.772;2023-09-07T00:15:08;7.80;;;5.33;;
5507;SDS011;2776;51.046;6.772;2023-09-07T00:17:36;6.70;;;6.10;;
5507;SDS011;2776;51.046;6.772;2023-09-07T00:20:03;6.20;;;5.60;;
5507;SDS011;2776;51.046;6.772;2023-09-07T00:22:36;6.60;;;5.70;;
5507;SDS011;2776;51.046;6.772;2023-09-07T00:25:03;8.53;;;5.73;;
5507;SDS011;2776;51.046;6.772;2023-09-07T00:27:31;6.83;;;4.80;;
5507;SDS011;2776;51.046;6.772;2023-09-07T00:30:00;6.17;;;5.23;;
5507;SDS011;2776;51.046;6.772;2023-09-07T00:32:26;6.60;;;5.50;;
5507;SDS011;2776;51.046;6.772;2023-09-07T00:34:53;5.43;;;4.93;;
5507;SDS011;2776;51.046;6.772;2023-09-07T00:37:20;6.20;;;5.53;;
5507;SDS011;2776;51.046;6.772;2023-09-07T00:39:46;8.20;;;5.43;;
5507;SDS011;2776;51.046;6.772;2023-09-07T00:42:13;6.87;;;5.40;;
5507;SDS011;2776;51.046;6.772;2023-09-07T00:44:40;6.43;;;5.23;;
5507;SDS011;2776;51.046;6.772;2023-09-07T00:47:08;6.53;;;5.53;;
5507;SDS011;2776;51.046;6.772;2023-09-07T00:49:35;5.53;;;4.97;;
5507;SDS011;2776;51.046;6.772;2023-09-07T00:52:02;7.07;;;5.67;;
5507;SDS011;2776;51.046;6.772;2023-09-07T00:54:30;6.13;;;5.30;;
5507;SDS011;2776;51.046;6.772;2023-09-07T00:56:56;6.40;;;5.37;;
5507;SDS011;2776;51.046;6.772;2023-09-07T00:59:23;6.87;;;5.87;;
5507;SDS011;2776;51.046;6.772;2023-09-07T01:01:51;7.73;;;5.50;;
5507;SDS011;2776;51.046;6.772;2023-09-07T01:04:19;7.93;;;5.80;;
5507;SDS011;2776;51.046;6.772;2023-09-07T01:06:47;6.93;;;5.60;;
5507;SDS011;2776;51.046;6.772;2023-09-07T01:09:19;6.27;;;5.07;;
5507;SDS011;2776;51.046;6.772;2023-09-07T01:11:48;5.60;;;5.00;;
5507;SDS011;2776;51.046;6.772;2023-09-07T01:14:15;6.93;;;5.87;;
5507;SDS011;2776;51.046;6.772;2023-09-07T01:16:42;8.00;;;5.20;;
5507;SDS011;2776;51.046;6.772;2023-09-07T01:19:09;6.97;;;5.80;;
5507;SDS011;2776;51.046;6.772;2023-09-07T01:21:38;7.80;;;5.97;;
5507;SDS011;2776;51.046;6.772;2023-09-07T01:24:06;6.63;;;5.53;;
5507;SDS011;2776;51.046;6.772;2023-09-07T01:26:34;6.13;;;5.53;;
5507;SDS011;2776;51.046;6.772;2023-09-07T01:29:03;9.83;;;5.47;;
5507;SDS011;2776;51.046;6.772;2023-09-07T01:31:34;5.97;;;5.37;;
5507;SDS011;2776;51.046;6.772;2023-09-07T01:34:01;12.47;;;5.60;;
5507;SDS011;2776;51.046;6.772;2023-09-07T01:36:27;6.40;;;5.77;;
5507;SDS011;2776;51.046;6.772;2023-09-07T01:38:56;7.43;;;6.00;;
5507;SDS011;2776;51.046;6.772;2023-09-07T01:41:23;6.73;;;5.57;;
5507;SDS011;2776;51.046;6.772;2023-09-07T01:43:49;7.20;;;5.63;;
5507;SDS011;2776;51.046;6.772;2023-09-07T01:46:16;7.50;;;5.27;;
5507;SDS011;2776;51.046;6.772;2023-09-07T01:48:43;7.00;;;5.60;;
5507;SDS011;2776;51.046;6.772;2023-09-07T01:51:09;7.53;;;6.37;;
5507;SDS011;2776;51.046;6.772;2023-09-07T01:53:36;6.07;;;5.33;;
5507;SDS011;2776;51.046;6.772;2023-09-07T01:56:04;6.37;;;5.77;;
5507;SDS011;2776;51.046;6.772;2023-09-07T01:58:31;6.90;;;5.63;;
5507;SDS011;2776;51.046;6.772;2023-09-07T02:00:59;11.33;;;5.50;;
5507;SDS011;2776;51.046;6.772;2023-09-07T02:03:26;8.30;;;6.30;;
5507;SDS011;2776;51.046;6.772;2023-09-07T02:05:53;7.10;;;6.20;;
5507;SDS011;2776;51.046;6.772;2023-09-07T02:08:20;7.83;;;5.47;;
5507;SDS011;2776;51.046;6.772;2023-09-07T02:10:46;8.03;;;6.10;;
5507;SDS011;2776;51.046;6.772;2023-09-07T02:13:15;6.47;;;5.43;;
5507;SDS011;2776;51.046;6.772;2023-09-07T02:15:41;6.40;;;5.30;;
5507;SDS011;2776;51.046;6.772;2023-09-07T02:18:08;6.13;;;5.53;;
5507;SDS011;2776;51.046;6.772;2023-09-07T02:20:35;6.03;;;5.07;;
5507;SDS011;2776;51.046;6.772;2023-09-07T02:23:01;5.67;;;5.03;;
5507;SDS011;2776;51.046;6.772;2023-09-07T02:25:28;7.07;;;5.53;;
5507;SDS011;2776;51.046;6.772;2023-09-07T02:27:55;5.10;;;4.60;;
5507;SDS011;2776;51.046;6.772;2023-09-07T02:30:23;5.40;;;4.40;;
5507;SDS011;2776;51.046;6.772;2023-09-07T02:32:50;6.00;;;5.03;;
5507;SDS011;2776;51.046;6.772;2023-09-07T02:35:18;5.90;;;5.37;;
5507;SDS011;2776;51.046;6.772;2023-09-07T02:37:45;7.03;;;5.30;;
5507;SDS011;2776;51.046;6.772;2023-09-07T02:40:11;7.53;;;5.07;;
5507;SDS011;2776;51.046;6.772;2023-09-07T02:42:40;6.40;;;5.50;;
5507;SDS011;2776;51.046;6.772;2023-09-07T02:45:09;6.23;;;5.63;;
5507;SDS011;2776;51.046;6.772;2023-09-07T02:47:38;7.43;;;5.13;;
5507;SDS011;2776;51.046;6.772;2023-09-07T02:50:05;8.90;;;6.23;;
5507;SDS011;2776;51.046;6.772;2023-09-07T02:52:32;9.00;;;6.63;;
5507;SDS011;2776;51.046;6.772;2023-09-07T02:54:59;7.37;;;6.10;;
5507;SDS011;2776;51.046;6.772;2023-09-07T02:57:26;11.77;;;6.37;;
5507;SDS011;2776;51.046;6.772;2023-09-07T02:59:53;6.53;;;5.93;;
5507;SDS011;2776;51.046;6.772;2023-09-07T03:02:19;9.33;;;6.50;;
5507;SDS011;2776;51.046;6.772;2023-09-07T03:04:47;11.03;;;6.93;;
5507;SDS011;2776;51.046;6.772;2023-09-07T03:07:19;6.97;;;6.27;;
5507;SDS011;2776;51.046;6.772;2023-09-07T03:09:45;7.63;;;6.17;;
5507;SDS011;2776;51.046;6.772;2023-09-07T03:12:12;9.20;;;6.13;;
5507;SDS011;2776;51.046;6.772;2023-09-07T03:14:42;9.13;;;6.70;;
5507;SDS011;2776;51.046;6.772;2023-09-07T03:17:09;7.27;;;6.57;;
5507;SDS011;2776;51.046;6.772;2023-09-07T03:19:36;6.60;;;5.60;;
5507;SDS011;2776;51.046;6.772;2023-09-07T03:22:04;8.70;;;6.33;;
5507;SDS011;2776;51.046;6.772;2023-09-07T03:24:31;6.50;;;5.57;;
5507;SDS011;2776;51.046;6.772;2023-09-07T03:26:58;6.53;;;5.50;;
5507;SDS011;2776;51.046;6.772;2023-09-07T03:29:25;7.33;;;6.30;;
5507;SDS011;2776;51.046;6.772;2023-09-07T03:31:52;6.83;;;5.70;;
5507;SDS011;2776;51.046;6.772;2023-09-07T03:34:18;6.63;;;5.70;;
5507;SDS011;2776;51.046;6.772;2023-09-07T03:36:46;6.47;;;5.70;;
5507;SDS011;2776;51.046;6.772;2023-09-07T03:39:14;5.90;;;5.30;;
5507;SDS011;2776;51.046;6.772;2023-09-07T03:41:42;5.77;;;5.13;;
5507;SDS011;2776;51.046;6.772;2023-09-07T03:44:09;5.17;;;4.67;;
5507;SDS011;2776;51.046;6.772;2023-09-07T03:46:36;6.57;;;5.30;;
5507;SDS011;2776;51.046;6.772;2023-09-07T03:49:03;6.73;;;5.27;;
5507;SDS011;2776;51.046;6.772;2023-09-07T03:51:30;5.77;;;5.03;;
5507;SDS011;2776;51.046;6.772;2023-09-07T03:53:57;5.97;;;5.30;;
5507;SDS011;2776;51.046;6.772;2023-09-07T03:56:25;6.00;;;5.10;;
5507;SDS011;2776;51.046;6.772;2023-09-07T03:58:52;5.43;;;4.93;;
5507;SDS011;2776;51.046;6.772;2023-09-07T04:01:19;5.57;;;5.00;;
5507;SDS011;2776;51.046;6.772;2023-09-07T04:03:45;6.30;;;5.43;;
5507;SDS011;2776;51.046;6.772;2023-09-07T04:06:12;6.83;;;5.13;;
5507;SDS011;2776;51.046;6.772;2023-09-07T04:08:39;7.33;;;5.33;;
5507;SDS011;2776;51.046;6.772;2023-09-07T04:11:05;6.67;;;6.07;;
5507;SDS011;2776;51.046;6.772;2023-09-07T04:13:35;7.27;;;6.00;;
5507;SDS011;2776;51.046;6.772;2023-09-07T04:16:02;6.60;;;5.90;;
5507;SDS011;2776;51.046;6.772;2023-09-07T04:18:29;7.00;;;6.27;;
5507;SDS011;2776;51.046;6.772;2023-09-07T04:21:03;8.47;;;7.07;;
5507;SDS011;2776;51.046;6.772;2023-09-07T04:23:30;6.77;;;6.10;;
5507;SDS011;2776;51.046;6.772;2023-09-07T04:26:03;7.20;;;6.50;;
5507;SDS011;2776;51.046;6.772;2023-09-07T04:28:31;6.53;;;5.87;;
5507;SDS011;2776;51.046;6.772;2023-09-07T04:30:59;7.40;;;6.00;;
5507;SDS011;2776;51.046;6.772;2023-09-07T04:33:26;7.10;;;6.33;;
5507;SDS011;2776;51.046;6.772;2023-09-07T04:35:55;7.30;;;6.60;;
5507;SDS011;2776;51.046;6.772;2023-09-07T04:38:22;8.00;;;6.33;;
5507;SDS011;2776;51.046;6.772;2023-09-07T04:40:48;8.35;;;7.35;;
5507;SDS011;2776;51.046;6.772;2023-09-07T04:43:15;8.90;;;6.70;;
5507;SDS011;2776;51.046;6.772;2023-09-07T04:45:46;8.63;;;6.73;;
5507;SDS011;2776;51.046;6.772;2023-09-07T04:48:13;8.03;;;6.70;;
5507;SDS011;2776;51.046;6.772;2023-09-07T04:50:40;6.67;;;6.03;;
5507;SDS011;2776;51.046;6.772;2023-09-07T04:53:06;7.10;;;6.40;;
5507;SDS011;2776;51.046;6.772;2023-09-07T04:55:36;8.07;;;5.80;;
5507;SDS011;2776;51.046;6.772;2023-09-07T04:58:04;7.53;;;6.60;;
5507;SDS011;2776;51.046;6.772;2023-09-07T05:00:32;8.00;;;6.53;;
5507;SDS011;2776;51.046;6.772;2023-09-07T05:03:00;6.90;;;6.13;;
5507;SDS011;2776;51.046;6.772;2023-09-07T05:05:27;6.93;;;6.20;;
5507;SDS011;2776;51.046;6.772;2023-09-07T05:07:54;8.67;;;6.13;;
5507;SDS011;2776;51.046;6.772;2023-09-07T05:10:20;7.10;;;5.00;;
5507;SDS011;2776;51.046;6.772;2023-09-07T05:12:47;6.50;;;5.87;;
5507;SDS011;2776;51.046;6.772;2023-09-07T05:15:14;8.83;;;5.73;;
5507;SDS011;2776;51.046;6.772;2023-09-07T05:17:42;5.47;;;4.97;;
5507;SDS011;2776;51.046;6.772;2023-09-07T05:20:11;8.20;;;5.33;;
5507;SDS011;2776;51.046;6.772;2023-09-07T05:22:38;7.20;;;5.50;;
5507;SDS011;2776;51.046;6.772;2023-09-07T05:25:06;8.57;;;6.53;;
5507;SDS011;2776;51.046;6.772;2023-09-07T05:27:33;12.13;;;7.00;;
5507;SDS011;2776;51.046;6.772;2023-09-07T05:30:01;9.80;;;6.20;;
5507;SDS011;2776;51.046;6.772;2023-09-07T05:32:27;10.97;;;7.53;;
5507;SDS011;2776;51.046;6.772;2023-09-07T05:34:54;8.47;;;7.00;;
5507;SDS011;2776;51.046;6.772;2023-09-07T05:37:22;9.37;;;6.40;;
5507;SDS011;2776;51.046;6.772;2023-09-07T05:39:49;7.57;;;6.83;;
5507;SDS011;2776;51.046;6.772;2023-09-07T05:42:16;10.47;;;6.93;;
5507;SDS011;2776;51.046;6.772;2023-09-07T05:44:43;7.63;;;6.80;;
5507;SDS011;2776;51.046;6.772;2023-09-07T05:47:09;7.27;;;6.63;;
5507;SDS011;2776;51.046;6.772;2023-09-07T05:49:36;10.13;;;7.07;;
5507;SDS011;2776;51.046;6.772;2023-09-07T05:52:03;8.07;;;6.70;;
5507;SDS011;2776;51.046;6.772;2023-09-07T05:54:31;10.07;;;6.83;;
5507;SDS011;2776;51.046;6.772;2023-09-07T05:56:58;8.57;;;6.37;;
5507;SDS011;2776;51.046;6.772;2023-09-07T05:59:25;7.40;;;6.70;;
5507;SDS011;2776;51.046;6.772;2023-09-07T06:01:52;9.63;;;7.13;;
5507;SDS011;2776;51.046;6.772;2023-09-07T06:04:18;8.37;;;6.50;;
5507;SDS011;2776;51.046;6.772;2023-09-07T06:06:45;7.67;;;6.87;;
5507;SDS011;2776;51.046;6.772;2023-09-07T06:09:12;7.27;;;6.50;;
5507;SDS011;2776;51.046;6.772;2023-09-07T06:11:40;8.00;;;6.60;;
5507;SDS011;2776;51.046;6.772;2023-09-07T06:14:06;8.00;;;5.93;;
5507;SDS011;2776;51.046;6.772;2023-09-07T06:16:33;6.97;;;5.90;;
5507;SDS011;2776;51.046;6.772;2023-09-07T06:19:00;10.03;;;6.07;;
5507;SDS011;2776;51.046;6.772;2023-09-07T06:21:27;6.70;;;6.03;;
5507;SDS011;2776;51.046;6.772;2023-09-07T06:23:53;7.57;;;5.78;;
5507;SDS011;2776;51.046;6.772;2023-09-07T06:26:20;6.72;;;6.03;;
5507;SDS011;2776;51.046;6.772;2023-09-07T06:28:48;7.22;;;5.75;;
5507;SDS011;2776;51.046;6.772;2023-09-07T06:31:15;8.38;;;5.38;;
5507;SDS011;2776;51.046;6.772;2023-09-07T06:33:41;6.05;;;5.32;;
5507;SDS011;2776;51.046;6.772;2023-09-07T06:36:08;8.07;;;5.78;;
5507;SDS011;2776;51.046;6.772;2023-09-07T06:38:35;6.47;;;4.93;;
5507;SDS011;2776;51.046;6.772;2023-09-07T06:41:02;6.30;;;4.70;;
5507;SDS011;2776;51.046;6.772;2023-09-07T06:43:29;5.60;;;4.80;;
5507;SDS011;2776;51.046;6.772;2023-09-07T06:46:02;5.85;;;4.55;;
5507;SDS011;2776;51.046;6.772;2023-09-07T06:48:31;6.78;;;4.90;;
5507;SDS011;2776;51.046;6.772;2023-09-07T06:51:01;8.02;;;5.15;;
5507;SDS011;2776;51.046;6.772;2023-09-07T06:53:28;5.75;;;4.50;;
5507;SDS011;2776;51.046;6.772;2023-09-07T06:55:57;6.05;;;4.85;;
5507;SDS011;2776;51.046;6.772;2023-09-07T06:58:23;6.03;;;4.78;;
5507;SDS011;2776;51.046;6.772;2023-09-07T07:00:50;6.25;;;4.88;;
5507;SDS011;2776;51.046;6.772;2023-09-07T07:03:18;6.70;;;5.03;;
5507;SDS011;2776;51.046;6.772;2023-09-07T07:05:45;7.45;;;4.45;;
5507;SDS011;2776;51.046;6.772;2023-09-07T07:08:12;5.18;;;4.68;;
5507;SDS011;2776;51.046;6.772;2023-09-07T07:10:38;5.65;;;4.70;;
5507;SDS011;2776;51.046;6.772;2023-09-07T07:13:05;5.75;;;4.80;;
5507;SDS011;2776;51.046;6.772;2023-09-07T07:15:32;5.32;;;4.70;;
5507;SDS011;2776;51.046;6.772;2023-09-07T07:18:00;8.35;;;4.97;;
5507;SDS011;2776;51.046;6.772;2023-09-07T07:20:34;8.38;;;4.90;;
5507;SDS011;2776;51.046;6.772;2023-09-07T07:23:01;6.15;;;4.70;;
5507;SDS011;2776;51.046;6.772;2023-09-07T07:25:28;7.35;;;4.22;;
5507;SDS011;2776;51.046;6.772;2023-09-07T07:27:56;5.75;;;4.15;;
5507;SDS011;2776;51.046;6.772;2023-09-07T07:30:23;5.38;;;3.85;;
5507;SDS011;2776;51.046;6.772;2023-09-07T07:32:52;5.90;;;3.72;;
5507;SDS011;2776;51.046;6.772;2023-09-07T07:35:19;6.63;;;4.13;;
5507;SDS011;2776;51.046;6.772;2023-09-07T07:37:47;5.35;;;4.07;;
5507;SDS011;2776;51.046;6.772;2023-09-07T07:40:15;4.40;;;3.30;;
5507;SDS011;2776;51.046;6.772;2023-09-07T07:42:42;3.53;;;3.22;;
5507;SDS011;2776;51.046;6.772;2023-09-07T07:45:09;4.72;;;3.28;;
5507;SDS011;2776;51.046;6.772;2023-09-07T07:47:37;6.10;;;3.10;;
5507;SDS011;2776;51.046;6.772;2023-09-07T07:50:05;5.13;;;3.42;;
5507;SDS011;2776;51.046;6.772;2023-09-07T07:52:32;6.40;;;3.28;;
5507;SDS011;2776;51.046;6.772;2023-09-07T07:55:01;7.35;;;3.75;;
5507;SDS011;2776;51.046;6.772;2023-09-07T07:57:28;5.47;;;3.03;;
5507;SDS011;2776;51.046;6.772;2023-09-07T07:59:55;4.22;;;3.30;;
5507;SDS011;2776;51.046;6.772;2023-09-07T08:02:22;4.25;;;3.50;;
5507;SDS011;2776;51.046;6.772;2023-09-07T08:04:49;3.80;;;3.28;;
5507;SDS011;2776;51.046;6.772;2023-09-07T08:07:15;3.33;;;3.03;;
5507;SDS011;2776;51.046;6.772;2023-09-07T08:09:42;5.63;;;3.47;;
5507;SDS011;2776;51.046;6.772;2023-09-07T08:12:10;7.00;;;3.08;;
5507;SDS011;2776;51.046;6.772;2023-09-07T08:14:37;4.85;;;3.25;;
5507;SDS011;2776;51.046;6.772;2023-09-07T08:17:04;4.78;;;3.17;;
5507;SDS011;2776;51.046;6.772;2023-09-07T08:19:32;3.42;;;2.90;;
5507;SDS011;2776;51.046;6.772;2023-09-07T08:21:59;4.75;;;2.92;;
5507;SDS011;2776;51.046;6.772;2023-09-07T08:24:28;5.20;;;3.30;;
5507;SDS011;2776;51.046;6.772;2023-09-07T08:26:55;7.28;;;3.60;;
5507;SDS011;2776;51.046;6.772;2023-09-07T08:29:24;9.50;;;3.90;;
5507;SDS011;2776;51.046;6.772;2023-09-07T08:31:51;7.85;;;3.95;;
5507;SDS011;2776;51.046;6.772;2023-09-07T08:34:19;5.97;;;3.20;;
5507;SDS011;2776;51.046;6.772;2023-09-07T08:36:47;5.45;;;2.90;;
5507;SDS011;2776;51.046;6.772;2023-09-07T08:39:15;3.45;;;3.10;;
5507;SDS011;2776;51.046;6.772;2023-09-07T08:41:43;4.63;;;3.30;;
5507;SDS011;2776;51.046;6.772;2023-09-07T08:44:10;3.88;;;3.00;;
5507;SDS011;2776;51.046;6.772;2023-09-07T08:46:41;4.80;;;3.35;;
5507;SDS011;2776;51.046;6.772;2023-09-07T08:49:09;7.53;;;4.20;;
5507;SDS011;2776;51.046;6.772;2023-09-07T08:51:36;3.97;;;3.38;;
5507;SDS011;2776;51.046;6.772;2023-09-07T08:54:03;5.15;;;3.35;;
5507;SDS011;2776;51.046;6.772;2023-09-07T08:56:30;4.45;;;3.47;;
5507;SDS011;2776;51.046;6.772;2023-09-07T08:58:58;6.88;;;3.00;;
5507;SDS011;2776;51.046;6.772;2023-09-07T09:01:25;3.58;;;3.28;;
5507;SDS011;2776;51.046;6.772;2023-09-07T09:03:55;3.88;;;3.10;;
5507;SDS011;2776;51.046;6.772;2023-09-07T09:06:22;4.25;;;2.90;;
5507;SDS011;2776;51.046;6.772;2023-09-07T09:08:49;3.22;;;2.95;;
5507;SDS011;2776;51.046;6.772;2023-09-07T09:11:17;5.25;;;3.22;;
5507;SDS011;2776;51.046;6.772;2023-09-07T09:13:44;3.33;;;2.90;;
5507;SDS011;2776;51.046;6.772;2023-09-07T09:16:12;3.78;;;3.38;;
5507;SDS011;2776;51.046;6.772;2023-09-07T09:18:47;4.80;;;3.60;;
5507;SDS011;2776;51.046;6.772;2023-09-07T09:21:16;3.50;;;3.10;;
5507;SDS011;2776;51.046;6.772;2023-09-07T09:23:43;5.28;;;3.42;;
5507;SDS011;2776;51.046;6.772;2023-09-07T09:26:09;5.07;;;3.20;;
5507;SDS011;2776;51.046;6.772;2023-09-07T09:28:38;4.35;;;3.40;;
5507;SDS011;2776;51.046;6.772;2023-09-07T09:31:05;3.40;;;3.10;;
5507;SDS011;2776;51.046;6.772;2023-09-07T09:33:37;3.47;;;3.10;;
5507;SDS011;2776;51.046;6.772;2023-09-07T09:36:04;3.67;;;3.20;;
5507;SDS011;2776;51.046;6.772;2023-09-07T09:38:33;4.22;;;3.67;;
5507;SDS011;2776;51.046;6.772;2023-09-07T09:41:01;3.53;;;3.00;;
5507;SDS011;2776;51.046;6.772;2023-09-07T09:43:29;4.30;;;3.38;;
5507;SDS011;2776;51.046;6.772;2023-09-07T09:45:56;5.28;;;3.30;;
5507;SDS011;2776;51.046;6.772;2023-09-07T09:48:24;3.72;;;3.08;;
5507;SDS011;2776;51.046;6.772;2023-09-07T09:50:52;5.80;;;3.22;;
5507;SDS011;2776;51.046;6.772;2023-09-07T09:53:19;4.00;;;3.15;;
5507;SDS011;2776;51.046;6.772;2023-09-07T09:55:47;3.38;;;3.08;;
5507;SDS011;2776;51.046;6.772;2023-09-07T09:58:15;5.07;;;2.95;;
5507;SDS011;2776;51.046;6.772;2023-09-07T10:00:42;4.43;;;3.38;;
5507;SDS011;2776;51.046;6.772;2023-09-07T10:03:11;3.13;;;2.80;;
5507;SDS011;2776;51.046;6.772;2023-09-07T10:05:44;4.25;;;3.50;;
5507;SDS011;2776;51.046;6.772;2023-09-07T10:08:11;3.33;;;3.03;;
5507;SDS011;2776;51.046;6.772;2023-09-07T10:10:40;4.07;;;2.90;;
5507;SDS011;2776;51.046;6.772;2023-09-07T10:13:13;3.58;;;3.08;;
5507;SDS011;2776;51.046;6.772;2023-09-07T10:15:40;4.57;;;3.60;;
5507;SDS011;2776;51.046;6.772;2023-09-07T10:18:09;4.93;;;3.30;;
5507;SDS011;2776;51.046;6.772;2023-09-07T10:20:47;3.33;;;3.03;;
5507;SDS011;2776;51.046;6.772;2023-09-07T10:23:17;3.75;;;3.22;;
5507;SDS011;2776;51.046;6.772;2023-09-07T10:25:47;3.42;;;3.00;;
5507;SDS011;2776;51.046;6.772;2023-09-07T10:28:23;5.55;;;3.00;;
5507;SDS011;2776;51.046;6.772;2023-09-07T10:31:00;6.22;;;3.35;;
5507;SDS011;2776;51.046;6.772;2023-09-07T10:33:29;3.30;;;2.58;;
5507;SDS011;2776;51.046;6.772;2023-09-07T10:35:56;7.30;;;2.97;;
5507;SDS011;2776;51.046;6.772;2023-09-07T10:38:23;3.83;;;3.30;;
5507;SDS011;2776;51.046;6.772;2023-09-07T10:40:54;4.40;;;2.92;;
5507;SDS011;2776;51.046;6.772;2023-09-07T10:43:24;5.18;;;2.85;;
5507;SDS011;2776;51.046;6.772;2023-09-07T10:45:51;4.22;;;3.00;;
5507;SDS011;2776;51.046;6.772;2023-09-07T10:48:17;3.42;;;3.13;;
5507;SDS011;2776;51.046;6.772;2023-09-07T10:50:44;3.45;;;3.10;;
5507;SDS011;2776;51.046;6.772;2023-09-07T10:53:12;4.03;;;3.10;;
5507;SDS011;2776;51.046;6.772;2023-09-07T10:55:40;3.47;;;3.15;;
5507;SDS011;2776;51.046;6.772;2023-09-07T10:58:08;4.07;;;3.08;;
5507;SDS011;2776;51.046;6.772;2023-09-07T11:00:37;3.72;;;2.90;;
5507;SDS011;2776;51.046;6.772;2023-09-07T11:03:07;3.75;;;3.30;;
5507;SDS011;2776;51.046;6.772;2023-09-07T11:05:35;3.85;;;2.67;;
5507;SDS011;2776;51.046;6.772;2023-09-07T11:08:04;4.10;;;3.03;;
5507;SDS011;2776;51.046;6.772;2023-09-07T11:10:32;4.40;;;2.83;;
5507;SDS011;2776;51.046;6.772;2023-09-07T11:13:01;3.15;;;2.85;;
5507;SDS011;2776;51.046;6.772;2023-09-07T11:15:29;3.50;;;3.20;;
5507;SDS011;2776;51.046;6.772;2023-09-07T11:17:58;4.53;;;2.92;;
5507;SDS011;2776;51.046;6.772;2023-09-07T11:20:25;4.43;;;3.00;;
5507;SDS011;2776;51.046;6.772;2023-09-07T11:22:52;3.45;;;3.15;;
5507;SDS011;2776;51.046;6.772;2023-09-07T11:25:19;5.18;;;2.60;;
5507;SDS011;2776;51.046;6.772;2023-09-07T11:27:46;3.22;;;2.95;;
5507;SDS011;2776;51.046;6.772;2023-09-07T11:30:13;4.38;;;3.10;;
5507;SDS011;2776;51.046;6.772;2023-09-07T11:32:39;2.78;;;2.58;;
5507;SDS011;2776;51.046;6.772;2023-09-07T11:35:09;3.50;;;3.20;;
5507;SDS011;2776;51.046;6.772;2023-09-07T11:37:36;3.80;;;2.83;;
5507;SDS011;2776;51.046;6.772;2023-09-07T11:40:03;3.15;;;2.65;;
5507;SDS011;2776;51.046;6.772;2023-09-07T11:42:36;3.08;;;2.72;;
5507;SDS011;2776;51.046;6.772;2023-09-07T11:45:03;3.30;;;3.00;;
5507;SDS011;2776;51.046;6.772;2023-09-07T11:47:31;4.57;;;3.30;;
5507;SDS011;2776;51.046;6.772;2023-09-07T11:49:59;3.25;;;2.95;;
5507;SDS011;2776;51.046;6.772;2023-09-07T11:52:27;3.20;;;2.90;;
5507;SDS011;2776;51.046;6.772;2023-09-07T11:54:54;3.47;;;2.97;;
5507;SDS011;2776;51.046;6.772;2023-09-07T11:57:21;5.00;;;3.30;;
5507;SDS011;2776;51.046;6.772;2023-09-07T11:59:47;3.40;;;2.90;;
5507;SDS011;2776;51.046;6.772;2023-09-07T12:02:14;4.25;;;2.85;;
5507;SDS011;2776;51.046;6.772;2023-09-07T12:04:42;4.38;;;2.95;;
5507;SDS011;2776;51.046;6.772;2023-09-07T12:07:09;4.75;;;2.70;;
5507;SDS011;2776;51.046;6.772;2023-09-07T12:09:37;3.28;;;2.97;;
5507;SDS011;2776;51.046;6.772;2023-09-07T12:12:04;3.38;;;3.08;;
5507;SDS011;2776;51.046;6.772;2023-09-07T12:14:31;6.22;;;3.25;;
5507;SDS011;2776;51.046;6.772;2023-09-07T12:16:58;3.50;;;3.20;;
5507;SDS011;2776;51.046;6.772;2023-09-07T12:19:25;4.93;;;2.72;;
5507;SDS011;2776;51.046;6.772;2023-09-07T12:21:52;2.95;;;2.75;;
5507;SDS011;2776;51.046;6.772;2023-09-07T12:24:18;2.67;;;2.47;;
5507;SDS011;2776;51.046;6.772;2023-09-07T12:26:46;3.20;;;2.90;;
5507;SDS011;2776;51.046;6.772;2023-09-07T12:29:13;4.00;;;3.22;;
5507;SDS011;2776;51.046;6.772;2023-09-07T12:31:40;5.78;;;2.97;;
5507;SDS011;2776;51.046;6.772;2023-09-07T12:34:07;3.58;;;3.10;;
5507;SDS011;2776;51.046;6.772;2023-09-07T12:36:34;3.78;;;3.22;;
5507;SDS011;2776;51.046;6.772;2023-09-07T12:39:00;5.15;;;3.17;;
5507;SDS011;2776;51.046;6.772;2023-09-07T12:41:30;3.20;;;3.00;;
5507;SDS011;2776;51.046;6.772;2023-09-07T12:43:58;3.25;;;2.95;;
5507;SDS011;2776;51.046;6.772;2023-09-07T12:46:24;4.32;;;2.80;;
5507;SDS011;2776;51.046;6.772;2023-09-07T12:48:51;3.38;;;3.05;;
5507;SDS011;2776;51.046;6.772;2023-09-07T12:51:18;3.15;;;2.88;;
5507;SDS011;2776;51.046;6.772;2023-09-07T12:53:44;3.35;;;2.80;;
5507;SDS011;2776;51.046;6.772;2023-09-07T12:56:11;3.13;;;2.83;;
5507;SDS011;2776;51.046;6.772;2023-09-07T12:58:38;3.63;;;2.80;;
5507;SDS011;2776;51.046;6.772;2023-09-07T13:01:06;3.20;;;2.83;;
5507;SDS011;2776;51.046;6.772;2023-09-07T13:03:35;3.30;;;3.00;;
5507;SDS011;2776;51.046;6.772;2023-09-07T13:06:02;3.03;;;2.83;;
5507;SDS011;2776;51.046;6.772;2023-09-07T13:08:29;5.22;;;3.20;;
5507;SDS011;2776;51.046;6.772;2023-09-07T13:10:55;4.10;;;2.90;;
5507;SDS011;2776;51.046;6.772;2023-09-07T13:13:22;3.47;;;2.95;;
5507;SDS011;2776;51.046;6.772;2023-09-07T13:15:50;3.75;;;2.80;;
5507;SDS011;2776;51.046;6.772;2023-09-07T13:18:19;5.63;;;2.75;;
5507;SDS011;2776;51.046;6.772;2023-09-07T13:20:46;3.72;;;2.92;;
5507;SDS011;2776;51.046;6.772;2023-09-07T13:23:14;2.78;;;2.55;;
5507;SDS011;2776;51.046;6.772;2023-09-07T13:25:41;3.35;;;2.85;;
5507;SDS011;2776;51.046;6.772;2023-09-07T13:28:08;4.22;;;2.95;;
5507;SDS011;2776;51.046;6.772;2023-09-07T13:30:34;5.10;;;3.17;;
5507;SDS011;2776;51.046;6.772;2023-09-07T13:33:01;4.10;;;2.92;;
5507;SDS011;2776;51.046;6.772;2023-09-07T13:35:29;3.15;;;2.60;;
5507;SDS011;2776;51.046;6.772;2023-09-07T13:37:57;3.60;;;3.20;;
5507;SDS011;2776;51.046;6.772;2023-09-07T13:40:24;3.95;;;2.95;;
5507;SDS011;2776;51.046;6.772;2023-09-07T13:42:54;3.17;;;2.83;;
5507;SDS011;2776;51.046;6.772;2023-09-07T13:45:21;3.35;;;3.10;;
5507;SDS011;2776;51.046;6.772;2023-09-07T13:47:47;3.00;;;2.70;;
5507;SDS011;2776;51.046;6.772;2023-09-07T13:50:14;3.35;;;3.00;;
5507;SDS011;2776;51.046;6.772;2023-09-07T13:52:42;3.55;;;2.45;;
5507;SDS011;2776;51.046;6.772;2023-09-07T13:55:09;3.70;;;3.03;;
5507;SDS011;2776;51.046;6.772;2023-09-07T13:57:36;3.28;;;2.97;;
5507;SDS011;2776;51.046;6.772;2023-09-07T14:00:03;3.10;;;2.85;;
5507;SDS011;2776;51.046;6.772;2023-09-07T14:02:30;3.20;;;2.90;;
5507;SDS011;2776;51.046;6.772;2023-09-07T14:04:58;2.85;;;2.65;;
5507;SDS011;2776;51.046;6.772;2023-09-07T14:07:25;3.08;;;2.88;;
5507;SDS011;2776;51.046;6.772;2023-09-07T14:09:53;3.67;;;3.00;;
5507;SDS011;2776;51.046;6.772;2023-09-07T14:12:20;4.10;;;2.88;;
5507;SDS011;2776;51.046;6.772;2023-09-07T14:14:47;3.60;;;2.90;;
5507;SDS011;2776;51.046;6.772;2023-09-07T14:17:14;3.03;;;2.75;;
5507;SDS011;2776;51.046;6.772;2023-09-07T14:19:40;3.38;;;3.08;;
5507;SDS011;2776;51.046;6.772;2023-09-07T14:22:07;3.60;;;2.70;;
5507;SDS011;2776;51.046;6.772;2023-09-07T14:24:34;4.10;;;3.10;;
5507;SDS011;2776;51.046;6.772;2023-09-07T14:27:02;2.95;;;2.70;;
5507;SDS011;2776;51.046;6.772;2023-09-07T14:29:29;3.40;;;3.10;;
5507;SDS011;2776;51.046;6.772;2023-09-07T14:31:56;3.20;;;2.90;;
5507;SDS011;2776;51.046;6.772;2023-09-07T14:34:23;3.08;;;2.78;;
5507;SDS011;2776;51.046;6.772;2023-09-07T14:36:51;3.25;;;2.95;;
5507;SDS011;2776;51.046;6.772;2023-09-07T14:39:17;3.90;;;3.50;;
5507;SDS011;2776;51.046;6.772;2023-09-07T14:41:48;3.55;;;3.25;;
5507;SDS011;2776;51.046;6.772;2023-09-07T14:44:17;2.72;;;2.33;;
5507;SDS011;2776;51.046;6.772;2023-09-07T14:46:43;4.28;;;2.85;;
5507;SDS011;2776;51.046;6.772;2023-09-07T14:49:12;4.38;;;3.17;;
5507;SDS011;2776;51.046;6.772;2023-09-07T14:51:38;3.25;;;2.95;;
5507;SDS011;2776;51.046;6.772;2023-09-07T14:54:05;3.65;;;3.00;;
5507;SDS011;2776;51.046;6.772;2023-09-07T14:56:32;3.03;;;2.60;;
5507;SDS011;2776;51.046;6.772;2023-09-07T14:59:00;3.45;;;2.75;;
5507;SDS011;2776;51.046;6.772;2023-09-07T15:01:28;3.40;;;3.10;;
5507;SDS011;2776;51.046;6.772;2023-09-07T15:03:56;2.80;;;2.60;;
5507;SDS011;2776;51.046;6.772;2023-09-07T15:06:23;5.72;;;2.92;;
5507;SDS011;2776;51.046;6.772;2023-09-07T15:08:50;3.28;;;2.97;;
5507;SDS011;2776;51.046;6.772;2023-09-07T15:11:17;3.22;;;2.88;;
5507;SDS011;2776;51.046;6.772;2023-09-07T15:13:43;4.93;;;3.17;;
5507;SDS011;2776;51.046;6.772;2023-09-07T15:16:10;3.35;;;3.05;;